KLYO/LYO METAR and TAF weather

Enter ICAO airport designator
Station Type Date Time Source
KLYO METAR 2019/08/22 04:35 UTC NOAA

KLYO 220435Z AUTO 08005KT 10SM BKN060 22/21 A3000 RMK AO2 P0001 T02160209


Station Type Date Time Source
KLYO Decoded METAR 2019/08/22 04:35 UTC NOAA

Station name not available
Aug 22, 2019 - 12:35 AM EDT / 2019.08.22 0435 UTC
Wind: from the E (080 degrees) at 6 MPH (5 KT):0
Visibility: 10 mile(s):0
Sky conditions: mostly cloudy
Precipitation last hour: 0.01 inches
Temperature: 70.9 F (21.6 C)
Dew Point: 69.6 F (20.9 C)
Relative Humidity: 95%
Pressure (altimeter): 30 in. Hg (1015 hPa)
ob: KLYO 220435Z AUTO 08005KT 10SM BKN060 22/21 A3000 RMK AO2 P0001 T02160209
cycle: 4

Station Type Date Time Source
KLYO TAF UTC NOAA

Error!

Example: see airport list